Time;durP1;ratioP1;P1;durP2;ratioP2;P2;SDS_P1;SDS_P2;PMS_P1;PMS_P2;Temp;Humidity;BMP_temperature;BMP_pressure;BME280_temperature;BME280_humidity;BME280_pressure;Samples;Min_cycle;Max_cycle;Signal;HPM_P1;HPM_P2
2021/01/02 00:00:00;;;;;;;2.55;2.20;;;3.00;99.90;;;;;;5093921;28;20672;-77
2021/01/02 00:02:44;;;;;;;2.22;1.80;;;4.70;99.90;;;;;;5090472;28;20394;-77
2021/01/02 00:05:14;;;;;;;2.60;2.17;;;2.90;99.90;;;;;;5088646;28;20401;-77
2021/01/02 00:08:14;;;;;;;2.67;2.13;;;3.00;99.90;;;;;;5088887;28;20396;-78
2021/01/02 00:11:08;;;;;;;2.33;2.13;;;2.90;99.90;;;;;;5087919;28;20386;-77
2021/01/02 00:13:55;;;;;;;3.00;2.10;;;4.30;99.90;;;;;;5091228;28;20384;-78
2021/01/02 00:16:39;;;;;;;2.60;2.00;;;3.30;99.90;;;;;;5091824;28;20402;-78
2021/01/02 00:19:11;;;;;;;2.20;2.00;;;3.00;99.90;;;;;;5090278;28;20386;-78
2021/01/02 00:22:08;;;;;;;1.60;1.50;;;5.30;99.90;;;;;;5089163;28;20433;-79
2021/01/02 00:24:48;;;;;;;1.70;1.38;;;2.90;99.90;;;;;;5090158;28;20419;-78
2021/01/02 00:27:28;;;;;;;2.03;1.80;;;5.00;99.90;;;;;;5089109;28;20485;-77
2021/01/02 00:30:04;;;;;;;1.88;1.30;;;3.10;99.90;;;;;;5089819;28;20390;-77
2021/01/02 00:32:46;;;;;;;1.80;1.60;;;3.00;99.90;;;;;;5088651;28;20394;-77
2021/01/02 00:35:20;;;;;;;2.05;1.60;;;3.10;99.90;;;;;;5085877;28;20523;-77
2021/01/02 00:38:11;;;;;;;2.00;1.80;;;3.10;99.90;;;;;;5086596;28;20535;-78
2021/01/02 00:40:39;;;;;;;2.00;1.77;;;3.00;99.90;;;;;;5114133;28;20392;-77
2021/01/02 00:43:05;;;;;;;2.78;1.50;;;4.10;99.90;;;;;;5090089;28;20477;-77
2021/01/02 00:45:32;;;;;;;1.65;1.30;;;2.60;99.90;;;;;;5091050;28;20515;-77
2021/01/02 00:48:00;;;;;;;1.70;1.60;;;2.80;99.90;;;;;;5089714;28;20834;-77
2021/01/02 00:50:27;;;;;;;2.00;1.80;;;3.10;99.90;;;;;;5090643;28;20386;-77
2021/01/02 00:53:04;;;;;;;2.50;2.10;;;3.20;99.90;;;;;;5091140;28;20382;-77
2021/01/02 00:56:04;;;;;;;3.40;3.00;;;4.20;99.90;;;;;;5093094;28;20483;-77
2021/01/02 00:59:11;;;;;;;4.38;3.20;;;2.90;99.90;;;;;;5093879;28;20424;-77
2021/01/02 01:01:45;;;;;;;3.92;3.30;;;3.00;99.90;;;;;;5086332;28;20459;-77
2021/01/02 01:04:37;;;;;;;5.10;3.85;;;3.80;99.90;;;;;;5094396;28;20762;-77
2021/01/02 01:07:03;;;;;;;6.63;4.40;;;3.00;99.90;;;;;;5092260;28;20914;-76
2021/01/02 01:09:37;;;;;;;4.53;3.67;;;3.00;99.90;;;;;;5094077;28;20735;-76
2021/01/02 01:12:07;;;;;;;4.53;3.63;;;2.70;99.90;;;;;;5093646;28;20382;-76
2021/01/02 01:14:33;;;;;;;4.75;3.53;;;2.90;99.90;;;;;;5091185;28;20374;-76
2021/01/02 01:17:03;;;;;;;4.97;3.90;;;3.40;99.90;;;;;;5091705;28;20406;-76
2021/01/02 01:19:33;;;;;;;4.50;3.40;;;3.10;99.90;;;;;;5093778;28;20385;-77
2021/01/02 01:22:04;;;;;;;4.72;3.40;;;3.00;99.90;;;;;;5093513;28;20767;-78
2021/01/02 01:24:46;;;;;;;4.90;3.57;;;3.00;99.90;;;;;;5093989;28;20378;-78
2021/01/02 01:27:25;;;;;;;5.13;3.13;;;2.90;99.90;;;;;;5093659;28;20396;-78
2021/01/02 01:29:58;;;;;;;3.60;2.60;;;3.10;99.90;;;;;;5091595;28;20431;-77
2021/01/02 01:32:26;;;;;;;3.67;2.60;;;2.90;99.90;;;;;;5093764;28;20521;-76
2021/01/02 01:35:00;;;;;;;3.47;2.90;;;3.00;99.90;;;;;;5092995;28;20397;-77
2021/01/02 01:37:33;;;;;;;2.72;2.22;;;2.90;99.90;;;;;;5093062;28;20424;-77
2021/01/02 01:40:00;;;;;;;2.67;2.47;;;3.60;99.90;;;;;;5091320;28;20430;-76
2021/01/02 01:42:44;;;;;;;2.63;2.35;;;3.00;99.90;;;;;;5093642;28;20378;-76
2021/01/02 01:45:32;;;;;;;2.80;2.40;;;2.90;99.90;;;;;;5092740;28;20545;-77
2021/01/02 01:48:11;;;;;;;2.90;2.60;;;2.90;99.90;;;;;;5091890;28;20381;-77
2021/01/02 01:50:46;;;;;;;2.80;2.20;;;3.30;99.90;;;;;;5093240;28;20414;-77
2021/01/02 01:54:06;;;;;;;3.30;2.08;;;2.90;99.90;;;;;;5092941;28;20393;-77
2021/01/02 01:56:43;;;;;;;1.63;1.52;;;2.80;99.90;;;;;;5010977;28;20496;-77
2021/01/02 01:59:21;;;;;;;1.90;1.60;;;5.50;99.90;;;;;;5077933;28;20574;-77
2021/01/02 02:01:53;;;;;;;2.10;1.70;;;3.00;99.90;;;;;;5093459;28;20402;-79
2021/01/02 02:04:33;;;;;;;2.20;1.70;;;3.90;99.90;;;;;;5093177;28;20385;-77
2021/01/02 02:07:01;;;;;;;1.80;1.70;;;2.90;99.90;;;;;;5092635;28;20473;-78
2021/01/02 02:09:44;;;;;;;2.07;1.67;;;3.40;99.90;;;;;;5093225;28;20385;-76
2021/01/02 02:12:21;;;;;;;2.00;1.50;;;3.30;99.90;;;;;;5092274;28;20370;-77
2021/01/02 02:15:06;;;;;;;2.70;1.67;;;5.00;99.90;;;;;;5092695;28;20463;-78
2021/01/02 02:17:42;;;;;;;2.60;2.13;;;2.90;99.90;;;;;;5091834;28;20536;-77
2021/01/02 02:20:12;;;;;;;3.05;2.70;;;4.00;99.90;;;;;;5091897;28;20423;-77
2021/01/02 02:22:40;;;;;;;4.00;3.10;;;3.00;99.90;;;;;;5093160;28;20553;-78
2021/01/02 02:25:15;;;;;;;2.85;2.25;;;4.80;99.90;;;;;;5090791;28;20933;-77
2021/01/02 02:27:46;;;;;;;3.95;3.00;;;4.20;99.90;;;;;;5091289;28;20502;-78
2021/01/02 02:30:14;;;;;;;4.00;3.15;;;3.20;99.90;;;;;;5092259;28;20601;-77
2021/01/02 02:32:42;;;;;;;4.38;3.33;;;3.00;99.90;;;;;;5090655;28;20437;-78
2021/01/02 02:35:13;;;;;;;4.20;3.60;;;4.30;99.90;;;;;;5091712;28;20389;-76
2021/01/02 02:37:43;;;;;;;6.93;4.15;;;2.90;99.90;;;;;;5092476;28;20429;-76
2021/01/02 02:40:10;;;;;;;6.28;4.38;;;2.50;99.90;;;;;;5090551;28;20807;-76
2021/01/02 02:42:45;;;;;;;4.75;4.10;;;2.80;99.90;;;;;;5092572;28;20414;-75
2021/01/02 02:45:13;;;;;;;6.00;4.10;;;3.00;99.90;;;;;;5091640;28;20394;-77
2021/01/02 02:47:41;;;;;;;6.63;3.90;;;2.90;99.90;;;;;;5092403;28;20825;-77
2021/01/02 02:50:17;;;;;;;6.70;4.22;;;3.20;99.90;;;;;;5091399;28;20427;-77
2021/01/02 02:52:46;;;;;;;6.70;4.60;;;3.00;99.90;;;;;;5092450;28;20378;-75
2021/01/02 02:55:12;;;;;;;5.53;4.88;;;2.80;99.90;;;;;;5091321;28;20409;-75
2021/01/02 02:57:47;;;;;;;6.72;5.10;;;3.00;99.90;;;;;;5091983;28;20410;-77
2021/01/02 03:00:14;;;;;;;7.43;5.40;;;2.90;99.90;;;;;;5091430;28;20382;-77
2021/01/02 03:02:39;;;;;;;6.45;5.38;;;2.70;99.90;;;;;;5091892;28;20483;-78
2021/01/02 03:05:10;;;;;;;8.25;6.20;;;3.90;99.90;;;;;;5091375;28;20942;-76
2021/01/02 03:07:42;;;;;;;7.28;5.20;;;2.40;99.90;;;;;;5091861;28;20413;-76
2021/01/02 03:10:09;;;;;;;7.68;6.20;;;3.80;99.90;;;;;;5091212;28;20373;-76
2021/01/02 03:12:44;;;;;;;8.75;7.22;;;3.00;99.90;;;;;;5090723;28;20867;-76
2021/01/02 03:15:11;;;;;;;10.65;7.30;;;2.50;99.90;;;;;;5090462;28;20415;-76
2021/01/02 03:17:38;;;;;;;9.48;7.20;;;2.60;99.90;;;;;;5091390;28;20390;-75
2021/01/02 03:20:05;;;;;;;9.23;7.00;;;5.10;99.90;;;;;;5090816;28;20465;-76
2021/01/02 03:22:30;;;;;;;10.47;6.77;;;2.20;99.90;;;;;;5091688;28;20508;-76
2021/01/02 03:24:56;;;;;;;10.13;7.65;;;4.20;99.90;;;;;;5090992;28;20488;-79
2021/01/02 03:27:21;;;;;;;10.82;7.30;;;3.40;99.90;;;;;;5091338;28;20796;-75
2021/01/02 03:29:48;;;;;;;10.63;7.00;;;3.20;99.90;;;;;;5091440;28;20481;-75
2021/01/02 03:32:13;;;;;;;9.25;6.82;;;2.20;99.90;;;;;;5090445;28;20420;-75
2021/01/02 03:34:40;;;;;;;10.48;7.82;;;2.50;99.90;;;;;;5091210;28;20418;-75
2021/01/02 03:37:06;;;;;;;9.82;7.32;;;4.00;99.90;;;;;;5090378;28;20422;-75
2021/01/02 03:39:33;;;;;;;10.57;7.40;;;5.00;99.90;;;;;;5091403;28;20765;-75
2021/01/02 03:41:58;;;;;;;10.70;7.13;;;3.00;99.90;;;;;;5090340;28;20858;-76
2021/01/02 03:44:24;;;;;;;9.93;7.22;;;2.40;99.90;;;;;;5091025;28;20435;-75
2021/01/02 03:46:50;;;;;;;10.95;7.70;;;4.50;99.90;;;;;;5091207;28;20389;-76
2021/01/02 03:49:15;;;;;;;9.57;6.57;;;4.20;99.90;;;;;;5090274;28;20385;-76
2021/01/02 03:51:41;;;;;;;9.37;6.97;;;2.20;99.90;;;;;;5091469;28;20386;-76
2021/01/02 03:54:07;;;;;;;11.33;7.90;;;3.80;99.90;;;;;;5090117;28;20829;-76
2021/01/02 03:56:32;;;;;;;11.00;7.60;;;2.50;99.90;;;;;;5090713;28;20405;-77
2021/01/02 03:58:58;;;;;;;9.80;7.40;;;2.40;99.90;;;;;;5090258;28;20393;-78
2021/01/02 04:01:23;;;;;;;12.23;6.60;;;2.70;99.90;;;;;;5091166;28;20388;-77
2021/01/02 04:03:49;;;;;;;9.73;7.47;;;2.50;99.90;;;;;;5090973;28;20382;-77
2021/01/02 04:06:24;;;;;;;9.65;6.70;;;4.60;99.90;;;;;;5090166;28;20469;-77
2021/01/02 04:08:49;;;;;;;10.40;7.70;;;2.40;99.90;;;;;;5089684;28;20455;-77
2021/01/02 04:11:15;;;;;;;10.63;7.63;;;3.80;99.90;;;;;;5090149;28;20374;-77
2021/01/02 04:13:40;;;;;;;10.27;7.33;;;3.90;99.90;;;;;;5091092;28;20649;-77
2021/01/02 04:16:06;;;;;;;10.57;6.80;;;2.80;99.90;;;;;;5090001;28;20413;-76
2021/01/02 04:18:32;;;;;;;9.97;7.33;;;4.50;99.90;;;;;;5090919;28;20374;-76
2021/01/02 04:20:58;;;;;;;11.13;7.47;;;3.80;99.90;;;;;;5089073;28;20792;-78
2021/01/02 04:23:24;;;;;;;8.93;7.17;;;2.20;99.90;;;;;;5090315;28;20410;-76
2021/01/02 04:25:50;;;;;;;11.20;7.00;;;2.70;99.90;;;;;;5090760;28;20382;-77
2021/01/02 04:28:15;;;;;;;9.75;7.65;;;4.60;99.90;;;;;;5092321;28;20842;-77
2021/01/02 04:30:41;;;;;;;9.63;7.38;;;4.30;99.90;;;;;;5094934;28;20734;-76
2021/01/02 04:33:06;;;;;;;12.37;7.37;;;3.70;99.90;;;;;;5093910;28;20475;-76
2021/01/02 04:35:32;;;;;;;10.70;6.60;;;2.40;99.90;;;;;;5094887;28;20366;-76
2021/01/02 04:38:01;;;;;;;13.13;7.77;;;4.30;99.90;;;;;;5094097;28;20413;-78
2021/01/02 04:40:26;;;;;;;9.90;7.80;;;4.50;99.90;;;;;;5095131;28;20465;-76
2021/01/02 04:42:52;;;;;;;9.05;7.18;;;3.50;99.90;;;;;;5094578;28;20385;-76
2021/01/02 04:45:20;;;;;;;10.07;7.78;;;2.10;99.90;;;;;;5093589;28;20374;-77
2021/01/02 04:47:48;;;;;;;10.23;7.75;;;4.60;99.90;;;;;;5094345;28;20389;-77
2021/01/02 04:50:16;;;;;;;11.13;7.20;;;3.90;99.90;;;;;;5094017;28;20383;-76
2021/01/02 04:52:44;;;;;;;11.57;7.77;;;2.60;99.90;;;;;;5094578;28;20374;-76
2021/01/02 04:55:11;;;;;;;10.30;7.70;;;2.30;99.90;;;;;;5094104;28;20382;-76
2021/01/02 04:57:38;;;;;;;10.73;7.07;;;2.60;99.90;;;;;;5094449;28;20408;-76
2021/01/02 05:00:07;;;;;;;11.30;7.20;;;5.20;99.90;;;;;;5093544;28;20390;-77
2021/01/02 05:02:33;;;;;;;8.80;7.03;;;2.50;99.90;;;;;;5093991;28;20390;-77
2021/01/02 05:05:00;;;;;;;10.30;7.03;;;3.40;99.90;;;;;;5094330;28;20370;-77
2021/01/02 05:07:28;;;;;;;11.10;7.30;;;3.10;99.90;;;;;;5093807;28;20386;-76
2021/01/02 05:09:54;;;;;;;9.13;7.50;;;4.90;99.90;;;;;;5094353;28;20382;-76
2021/01/02 05:12:28;;;;;;;10.80;7.68;;;2.70;99.90;;;;;;5093507;28;21030;-76
2021/01/02 05:15:13;;;;;;;10.25;7.30;;;3.70;99.90;;;;;;5094296;28;20382;-75
2021/01/02 05:17:41;;;;;;;9.50;7.30;;;2.70;99.90;;;;;;5094070;28;20406;-75
2021/01/02 05:20:15;;;;;;;8.55;6.85;;;2.80;99.90;;;;;;5093391;28;20388;-76
2021/01/02 05:22:43;;;;;;;11.75;7.85;;;4.70;99.90;;;;;;5094168;28;20369;-76
2021/01/02 05:25:16;;;;;;;9.38;7.00;;;3.00;99.90;;;;;;5093411;28;20393;-76
2021/01/02 05:27:51;;;;;;;9.60;6.97;;;4.10;99.90;;;;;;5094040;28;20753;-76
2021/01/02 05:30:33;;;;;;;9.95;7.30;;;2.70;99.90;;;;;;5092990;28;20862;-76
2021/01/02 05:33:11;;;;;;;9.50;6.87;;;2.60;99.90;;;;;;5093858;28;20386;-75
2021/01/02 05:35:38;;;;;;;10.32;8.02;;;3.10;99.90;;;;;;5093984;28;20479;-75
2021/01/02 05:38:16;;;;;;;8.73;6.95;;;2.70;99.90;;;;;;5090974;28;20455;-78
2021/01/02 05:41:02;;;;;;;10.85;7.65;;;2.20;99.90;;;;;;5093856;28;20420;-75
2021/01/02 05:43:29;;;;;;;9.38;7.22;;;3.30;99.90;;;;;;5091307;28;20863;-75
2021/01/02 05:45:55;;;;;;;10.63;8.00;;;2.60;99.90;;;;;;5092150;28;20424;-76
2021/01/02 05:48:22;;;;;;;10.60;7.80;;;4.40;99.90;;;;;;5093065;28;20382;-76
2021/01/02 05:50:49;;;;;;;9.80;7.20;;;2.80;99.90;;;;;;5093662;28;20722;-76
2021/01/02 05:53:34;;;;;;;9.15;7.28;;;4.20;99.90;;;;;;5091245;28;20387;-76
2021/01/02 05:56:08;;;;;;;9.82;8.00;;;2.10;99.90;;;;;;5093489;28;20386;-76
2021/01/02 05:58:42;;;;;;;8.23;6.45;;;2.50;99.90;;;;;;5093271;28;20385;-76
2021/01/02 06:01:18;;;;;;;12.52;7.90;;;3.50;99.90;;;;;;5092307;28;20381;-77
2021/01/02 06:03:46;;;;;;;11.45;7.30;;;3.60;99.90;;;;;;5091885;28;21080;-75
2021/01/02 06:06:16;;;;;;;11.27;7.30;;;4.20;99.90;;;;;;5092052;28;20386;-76
2021/01/02 06:08:50;;;;;;;10.32;7.80;;;3.60;99.90;;;;;;5092875;28;20424;-76
2021/01/02 06:11:16;;;;;;;9.65;7.32;;;2.10;99.90;;;;;;5092279;28;20439;-77
2021/01/02 06:13:48;;;;;;;9.00;7.15;;;4.20;99.90;;;;;;5093189;28;20723;-76
2021/01/02 06:16:14;;;;;;;10.25;7.50;;;2.60;99.90;;;;;;5092097;28;20405;-77
2021/01/02 06:18:45;;;;;;;10.73;7.32;;;2.80;99.90;;;;;;5092707;28;20385;-76
2021/01/02 06:21:19;;;;;;;8.63;7.00;;;3.80;99.90;;;;;;5092215;28;20358;-75
2021/01/02 06:23:47;;;;;;;9.95;7.47;;;3.80;99.90;;;;;;5092858;28;20462;-76
2021/01/02 06:26:14;;;;;;;9.30;7.05;;;2.30;99.90;;;;;;5092171;28;20401;-75
2021/01/02 06:28:43;;;;;;;9.50;7.00;;;4.00;99.90;;;;;;5092467;28;20378;-76
2021/01/02 06:31:11;;;;;;;8.73;7.45;;;3.20;99.90;;;;;;5091705;28;20386;-76
2021/01/02 06:33:44;;;;;;;10.20;7.00;;;3.10;99.90;;;;;;5092427;28;20481;-76
2021/01/02 06:36:33;;;;;;;10.32;7.00;;;4.20;99.90;;;;;;5091849;28;20401;-79
2021/01/02 06:39:21;;;;;;;8.25;7.13;;;2.60;99.90;;;;;;5092812;28;20386;-78
2021/01/02 06:41:49;;;;;;;11.15;7.47;;;2.50;99.90;;;;;;5092449;28;20877;-78
2021/01/02 06:44:43;;;;;;;7.95;6.20;;;2.50;99.90;;;;;;5091841;28;20397;-78
2021/01/02 06:47:34;;;;;;;8.50;6.60;;;2.50;99.90;;;;;;5071374;28;20911;-77
2021/01/02 06:50:20;;;;;;;8.23;6.90;;;2.60;99.90;;;;;;5064425;28;20405;-76
2021/01/02 06:52:46;;;;;;;9.17;6.80;;;2.80;99.90;;;;;;5072302;28;20407;-76
2021/01/02 06:55:22;;;;;;;10.68;7.05;;;2.80;99.90;;;;;;5071168;28;20384;-77
2021/01/02 06:57:48;;;;;;;8.13;6.35;;;2.50;99.90;;;;;;5072148;28;20447;-77
2021/01/02 07:00:21;;;;;;;9.05;6.65;;;2.40;99.90;;;;;;5071268;28;20379;-78
2021/01/02 07:02:47;;;;;;;8.57;7.15;;;2.50;99.90;;;;;;5072105;28;20421;-77
2021/01/02 07:05:42;;;;;;;7.28;5.88;;;2.80;99.90;;;;;;5069959;28;20475;-77
2021/01/02 07:08:41;;;;;;;8.43;6.72;;;2.50;99.90;;;;;;5071363;28;20424;-78
2021/01/02 07:11:29;;;;;;;9.45;6.68;;;2.40;99.90;;;;;;5071883;28;20466;-79
2021/01/02 07:14:07;;;;;;;9.00;6.70;;;3.80;99.90;;;;;;5071764;28;20399;-77
2021/01/02 07:16:35;;;;;;;9.52;6.13;;;3.50;99.90;;;;;;5071769;28;20408;-77
2021/01/02 07:19:03;;;;;;;11.02;6.95;;;3.00;99.90;;;;;;5070440;28;20414;-77
2021/01/02 07:21:36;;;;;;;6.82;6.13;;;2.20;99.90;;;;;;5070531;28;20372;-76
2021/01/02 07:24:21;;;;;;;8.32;6.38;;;2.40;99.90;;;;;;5080192;28;20378;-77
2021/01/02 07:26:47;;;;;;;8.13;6.05;;;2.30;99.90;;;;;;5090612;28;20742;-77
2021/01/02 07:29:20;;;;;;;6.70;5.28;;;3.80;99.90;;;;;;5090874;28;20394;-77
2021/01/02 07:31:46;;;;;;;9.10;6.47;;;2.30;99.90;;;;;;5091466;28;20851;-77
2021/01/02 07:34:20;;;;;;;7.65;6.65;;;4.90;99.90;;;;;;5090497;28;20739;-78
2021/01/02 07:36:46;;;;;;;9.38;7.03;;;3.60;99.90;;;;;;5089842;28;20418;-77
2021/01/02 07:39:14;;;;;;;7.35;5.72;;;2.10;99.90;;;;;;5090048;28;20801;-77
2021/01/02 07:41:40;;;;;;;8.40;6.03;;;2.50;99.90;;;;;;5091813;28;20402;-77
2021/01/02 07:44:07;;;;;;;7.40;5.55;;;3.80;99.90;;;;;;5091277;28;20439;-77
2021/01/02 07:46:43;;;;;;;7.40;5.70;;;2.40;99.90;;;;;;5090390;28;20390;-77
2021/01/02 07:49:10;;;;;;;7.53;5.60;;;2.40;99.90;;;;;;5091164;28;20854;-79
2021/01/02 07:51:35;;;;;;;7.93;5.50;;;4.50;99.90;;;;;;5091502;28;20375;-77
2021/01/02 07:54:02;;;;;;;7.30;5.43;;;2.10;99.90;;;;;;5091361;28;20427;-77
2021/01/02 07:56:38;;;;;;;8.07;5.90;;;2.40;99.90;;;;;;5090287;28;20398;-77
2021/01/02 07:59:20;;;;;;;6.65;5.50;;;2.40;99.90;;;;;;5091435;28;20392;-77
2021/01/02 08:01:53;;;;;;;9.50;6.43;;;3.90;99.90;;;;;;5090963;28;20443;-77
2021/01/02 08:04:19;;;;;;;9.27;6.63;;;3.50;99.90;;;;;;5090987;28;20806;-77
2021/01/02 08:06:47;;;;;;;8.13;6.05;;;2.20;99.90;;;;;;5089743;28;20507;-77
2021/01/02 08:09:12;;;;;;;8.43;6.40;;;4.50;99.90;;;;;;5090581;28;20385;-79
2021/01/02 08:11:46;;;;;;;8.80;6.18;;;2.50;99.90;;;;;;5091018;28;20378;-77
2021/01/02 08:14:11;;;;;;;9.80;6.88;;;2.90;99.90;;;;;;5090626;28;20726;-79
2021/01/02 08:16:37;;;;;;;7.07;5.78;;;2.60;99.90;;;;;;5089427;28;20401;-77
2021/01/02 08:19:04;;;;;;;8.10;6.60;;;4.40;99.90;;;;;;5091097;28;20381;-77
2021/01/02 08:21:37;;;;;;;8.63;5.85;;;4.00;99.90;;;;;;5088886;28;20952;-77
2021/01/02 08:24:04;;;;;;;7.43;5.80;;;4.00;99.90;;;;;;5090958;28;20715;-77
2021/01/02 08:26:30;;;;;;;6.72;5.45;;;2.50;99.90;;;;;;5090100;28;20427;-77
2021/01/02 08:28:56;;;;;;;7.85;5.38;;;2.60;99.90;;;;;;5090636;28;20406;-77
2021/01/02 08:31:24;;;;;;;6.35;5.35;;;4.20;99.90;;;;;;5090107;28;20614;-77
2021/01/02 08:33:51;;;;;;;9.27;6.10;;;4.00;99.90;;;;;;5089436;28;20382;-77
2021/01/02 08:36:18;;;;;;;7.43;6.18;;;2.70;99.90;;;;;;5089441;28;20421;-78
2021/01/02 08:39:04;;;;;;;9.32;5.95;;;5.30;99.90;;;;;;5090777;28;20417;-77
2021/01/02 08:41:30;;;;;;;6.13;5.00;;;2.70;99.90;;;;;;5089765;28;20798;-77
2021/01/02 08:43:56;;;;;;;6.38;5.00;;;2.60;99.90;;;;;;5090542;28;20389;-77
2021/01/02 08:46:23;;;;;;;13.57;7.23;;;2.50;99.90;;;;;;5089407;28;20382;-78
2021/01/02 08:48:50;;;;;;;4.97;3.53;;;2.80;99.90;;;;;;5089547;28;20888;-77
2021/01/02 08:51:26;;;;;;;5.73;3.57;;;4.00;99.90;;;;;;5080185;28;20487;-78
2021/01/02 08:53:53;;;;;;;4.77;3.70;;;4.90;99.90;;;;;;5079547;28;20482;-77
2021/01/02 08:56:26;;;;;;;4.40;3.73;;;2.90;99.90;;;;;;5089169;28;20433;-77
2021/01/02 08:58:53;;;;;;;3.90;2.90;;;3.30;99.90;;;;;;5090046;28;20429;-77
2021/01/02 09:01:20;;;;;;;4.57;3.38;;;3.40;99.90;;;;;;5089231;28;20405;-77
2021/01/02 09:03:46;;;;;;;5.40;3.50;;;5.50;99.90;;;;;;5089646;28;20773;-78
2021/01/02 09:06:22;;;;;;;3.35;3.00;;;3.50;99.90;;;;;;5090025;28;20376;-77
2021/01/02 09:09:08;;;;;;;3.47;3.00;;;3.80;99.90;;;;;;5089950;28;20518;-77
2021/01/02 09:11:51;;;;;;;4.63;3.58;;;3.40;99.90;;;;;;5085561;28;20373;-76
2021/01/02 09:14:18;;;;;;;4.13;3.50;;;3.20;99.90;;;;;;5090704;28;20426;-77
2021/01/02 09:17:03;;;;;;;4.90;3.30;;;4.70;99.90;;;;;;5093607;28;20402;-77
2021/01/02 09:19:29;;;;;;;4.78;3.40;;;4.20;99.90;;;;;;5090550;28;20426;-78
2021/01/02 09:21:55;;;;;;;4.30;3.50;;;3.30;99.90;;;;;;5093718;28;20381;-78
2021/01/02 09:24:24;;;;;;;3.97;3.28;;;3.10;99.90;;;;;;5093029;28;20378;-78
2021/01/02 09:26:50;;;;;;;4.30;3.30;;;3.40;99.90;;;;;;5091095;28;20417;-78
2021/01/02 09:29:17;;;;;;;5.32;3.80;;;5.50;99.90;;;;;;5094401;28;20386;-79
2021/01/02 09:31:44;;;;;;;5.13;3.60;;;3.60;99.90;;;;;;5092492;28;20501;-78
2021/01/02 09:34:10;;;;;;;4.80;3.78;;;3.40;99.90;;;;;;5093070;28;20417;-77
2021/01/02 09:36:36;;;;;;;4.30;3.50;;;3.40;99.90;;;;;;5092303;28;20445;-78
2021/01/02 09:39:05;;;;;;;5.00;3.50;;;5.10;99.90;;;;;;5092917;28;20398;-77
2021/01/02 09:41:31;;;;;;;5.07;3.80;;;3.40;99.90;;;;;;5092400;28;20395;-77
2021/01/02 09:43:58;;;;;;;5.32;3.80;;;3.00;99.90;;;;;;5092692;28;20420;-78
2021/01/02 09:46:25;;;;;;;5.40;3.20;;;3.10;99.90;;;;;;5091033;28;20462;-78
2021/01/02 09:48:52;;;;;;;4.22;3.60;;;4.20;99.90;;;;;;5093240;28;20386;-78
2021/01/02 09:51:19;;;;;;;4.88;3.40;;;5.60;99.90;;;;;;5091669;28;20378;-79
2021/01/02 09:53:45;;;;;;;3.85;3.33;;;3.50;99.90;;;;;;5093507;28;20431;-75
2021/01/02 09:56:11;;;;;;;4.77;3.40;;;5.10;99.90;;;;;;5093395;28;20808;-75
2021/01/02 09:58:37;;;;;;;3.73;3.00;;;5.30;99.90;;;;;;5092605;28;20501;-75
2021/01/02 10:01:04;;;;;;;4.82;3.30;;;3.40;99.90;;;;;;5093099;28;20374;-78
2021/01/02 10:03:30;;;;;;;4.47;3.80;;;3.80;99.90;;;;;;5091396;28;20508;-77
2021/01/02 10:05:56;;;;;;;4.20;3.57;;;3.50;99.90;;;;;;5093540;28;20465;-75
2021/01/02 10:08:23;;;;;;;4.32;3.35;;;4.70;99.90;;;;;;5092445;28;20374;-75
2021/01/02 10:10:49;;;;;;;3.83;3.00;;;3.30;99.90;;;;;;5093076;28;20386;-75
2021/01/02 10:13:15;;;;;;;4.57;3.50;;;3.50;99.90;;;;;;5092923;28;20743;-78
2021/01/02 10:15:41;;;;;;;4.00;3.10;;;3.90;99.90;;;;;;5092713;28;20378;-75
2021/01/02 10:18:06;;;;;;;4.73;3.10;;;3.40;99.90;;;;;;5093169;28;20401;-76
2021/01/02 10:20:34;;;;;;;4.70;3.47;;;3.70;99.90;;;;;;5092185;28;20388;-77
2021/01/02 10:22:59;;;;;;;5.25;3.70;;;3.50;99.90;;;;;;5093135;28;20382;-76
2021/01/02 10:25:25;;;;;;;4.72;3.22;;;3.80;99.90;;;;;;5090720;28;20378;-77
2021/01/02 10:27:51;;;;;;;3.70;3.30;;;3.50;99.90;;;;;;5092942;28;20382;-77
2021/01/02 10:30:18;;;;;;;5.50;4.20;;;3.50;99.90;;;;;;5092795;28;20374;-77
2021/01/02 10:32:47;;;;;;;3.92;3.47;;;3.50;99.90;;;;;;5092887;28;20428;-77
2021/01/02 10:35:16;;;;;;;5.45;3.88;;;3.50;99.90;;;;;;5092016;28;20382;-77
2021/01/02 10:37:44;;;;;;;5.07;3.80;;;5.30;99.90;;;;;;5091575;28;20544;-77
2021/01/02 10:40:11;;;;;;;3.70;3.10;;;3.40;99.90;;;;;;5092755;28;20457;-77
2021/01/02 10:42:37;;;;;;;5.18;4.25;;;3.80;99.90;;;;;;5091774;28;20768;-77
2021/01/02 10:45:06;;;;;;;4.72;3.60;;;4.10;99.90;;;;;;5092017;28;20393;-78
2021/01/02 10:47:32;;;;;;;4.80;3.33;;;4.00;99.90;;;;;;5091831;28;20397;-77
2021/01/02 10:49:59;;;;;;;4.70;3.80;;;3.70;99.90;;;;;;5091291;28;20738;-76
2021/01/02 10:52:26;;;;;;;5.38;3.80;;;3.70;99.90;;;;;;5091514;28;20393;-76
2021/01/02 10:54:55;;;;;;;4.10;3.40;;;3.80;99.90;;;;;;5091946;28;20384;-77
2021/01/02 10:57:27;;;;;;;5.28;3.50;;;3.80;99.90;;;;;;5092208;28;20727;-77
2021/01/02 10:59:53;;;;;;;5.03;4.00;;;3.80;99.90;;;;;;5092380;28;20393;-76
2021/01/02 11:02:19;;;;;;;4.00;3.60;;;3.70;99.90;;;;;;5090973;28;20394;-76
2021/01/02 11:04:45;;;;;;;5.45;4.10;;;3.70;99.90;;;;;;5092117;28;20382;-76
2021/01/02 11:07:11;;;;;;;3.83;3.43;;;4.70;99.90;;;;;;5092511;28;20439;-76
2021/01/02 11:09:37;;;;;;;3.88;3.33;;;5.50;99.90;;;;;;5091955;28;20437;-77
2021/01/02 11:12:06;;;;;;;4.28;3.10;;;3.70;99.90;;;;;;5092026;28;20385;-77
2021/01/02 11:14:32;;;;;;;4.97;3.70;;;3.60;99.90;;;;;;5091367;28;20485;-77
2021/01/02 11:16:58;;;;;;;4.50;3.57;;;5.00;99.90;;;;;;5091844;28;20938;-76
2021/01/02 11:19:28;;;;;;;5.90;4.05;;;3.60;99.90;;;;;;5091508;28;20465;-78
2021/01/02 11:21:57;;;;;;;3.67;3.20;;;3.60;99.90;;;;;;5091858;28;20378;-77
2021/01/02 11:24:25;;;;;;;3.78;3.38;;;4.20;99.90;;;;;;5091303;28;20433;-80
2021/01/02 11:26:53;;;;;;;4.50;3.53;;;3.80;99.90;;;;;;5091378;28;20770;-77
2021/01/02 11:29:21;;;;;;;3.50;3.20;;;3.80;99.90;;;;;;5090050;28;20393;-77
2021/01/02 11:31:49;;;;;;;6.03;3.33;;;5.10;99.90;;;;;;5091598;28;20382;-76
2021/01/02 11:34:15;;;;;;;4.57;3.63;;;3.60;99.90;;;;;;5091734;28;20424;-77
2021/01/02 11:36:43;;;;;;;3.95;3.30;;;3.40;99.90;;;;;;5090975;28;20445;-78
2021/01/02 11:39:09;;;;;;;4.85;3.38;;;3.70;99.90;;;;;;5091422;28;20382;-78
2021/01/02 11:41:41;;;;;;;4.93;3.80;;;3.90;99.90;;;;;;5090890;28;20383;-76
2021/01/02 11:44:09;;;;;;;4.13;3.55;;;5.10;99.90;;;;;;5091312;28;20496;-79
2021/01/02 11:46:40;;;;;;;4.63;3.67;;;5.90;99.90;;;;;;5090593;28;20385;-77
2021/01/02 11:49:07;;;;;;;4.25;3.45;;;3.40;99.90;;;;;;5091819;28;20389;-77
2021/01/02 11:51:33;;;;;;;4.15;3.50;;;3.50;99.90;;;;;;5090693;28;20370;-78
2021/01/02 11:53:59;;;;;;;5.27;3.80;;;5.20;99.90;;;;;;5091943;28;20437;-79
2021/01/02 11:56:26;;;;;;;4.30;3.07;;;4.00;99.90;;;;;;5088496;28;20796;-79
2021/01/02 11:58:54;;;;;;;4.72;3.60;;;4.70;99.90;;;;;;5091198;28;20446;-79
2021/01/02 12:01:20;;;;;;;4.40;3.50;;;4.40;99.90;;;;;;5090362;28;20393;-78
2021/01/02 12:03:46;;;;;;;4.50;3.60;;;3.80;99.90;;;;;;5090864;28;20382;-78
2021/01/02 12:06:13;;;;;;;4.03;3.38;;;3.90;99.90;;;;;;5090707;28;20371;-78
2021/01/02 12:08:39;;;;;;;4.70;3.40;;;5.50;99.90;;;;;;5088760;28;20386;-77
2021/01/02 12:11:07;;;;;;;4.10;3.10;;;4.30;99.90;;;;;;5090171;28;20375;-77
2021/01/02 12:13:41;;;;;;;4.32;3.00;;;4.50;99.90;;;;;;5086443;28;20430;-78
2021/01/02 12:16:07;;;;;;;3.78;3.38;;;4.00;99.90;;;;;;5089239;28;20419;-76
2021/01/02 12:18:34;;;;;;;3.80;3.00;;;3.80;99.90;;;;;;5088091;28;20390;-77
2021/01/02 12:21:00;;;;;;;4.28;3.45;;;4.50;99.90;;;;;;5089798;28;20427;-76
2021/01/02 12:23:26;;;;;;;3.83;3.37;;;4.60;99.90;;;;;;5089714;28;20378;-80
2021/01/02 12:25:53;;;;;;;4.80;3.50;;;3.70;99.90;;;;;;5087300;28;20776;-76
2021/01/02 12:28:19;;;;;;;4.82;3.67;;;5.10;99.90;;;;;;5090108;28;20744;-75
2021/01/02 12:30:45;;;;;;;6.10;3.72;;;4.10;99.90;;;;;;5089582;28;20469;-76
2021/01/02 12:33:10;;;;;;;4.80;3.45;;;3.90;99.90;;;;;;5090026;28;20856;-77
2021/01/02 12:35:36;;;;;;;5.30;4.43;;;4.00;99.90;;;;;;5088023;28;20382;-76
2021/01/02 12:38:02;;;;;;;3.83;3.45;;;5.30;99.90;;;;;;5088229;28;20502;-76
2021/01/02 12:40:28;;;;;;;4.05;3.15;;;4.60;99.90;;;;;;5090082;28;20429;-80
2021/01/02 12:42:54;;;;;;;4.03;3.42;;;3.80;99.90;;;;;;5089584;28;20386;-77
2021/01/02 12:45:20;;;;;;;3.50;2.92;;;3.80;99.90;;;;;;5089890;28;20388;-76
2021/01/02 12:47:46;;;;;;;4.43;3.55;;;3.50;99.90;;;;;;5088882;28;20394;-76
2021/01/02 12:50:11;;;;;;;6.37;3.30;;;4.90;99.90;;;;;;5093488;28;20373;-75
2021/01/02 12:52:38;;;;;;;4.95;3.58;;;3.60;99.90;;;;;;5093352;28;20547;-76
2021/01/02 12:55:07;;;;;;;3.70;2.70;;;3.60;99.90;;;;;;5092563;28;20873;-76
2021/01/02 12:57:35;;;;;;;3.22;2.85;;;3.70;99.90;;;;;;5093470;28;20753;-80
2021/01/02 13:00:04;;;;;;;3.38;3.08;;;3.30;99.90;;;;;;5093302;28;20391;-75
2021/01/02 13:02:32;;;;;;;5.57;2.85;;;3.40;99.90;;;;;;5092683;28;20915;-76
2021/01/02 13:04:58;;;;;;;4.07;3.30;;;4.00;99.90;;;;;;5094517;28;20494;-76
2021/01/02 13:07:24;;;;;;;3.78;2.90;;;3.90;99.90;;;;;;5094346;28;20413;-76
2021/01/02 13:09:49;;;;;;;4.47;3.20;;;5.30;99.90;;;;;;5093633;28;20443;-75
2021/01/02 13:12:18;;;;;;;3.50;2.60;;;3.50;99.90;;;;;;5094295;28;20750;-74